createdAt,value
2019-03-20T00:01:01.442Z,1.40
2019-03-20T00:06:06.491Z,1.40
2019-03-20T00:11:11.564Z,1.30
2019-03-20T00:16:16.425Z,1.20
2019-03-20T00:21:22.717Z,1.10
2019-03-20T00:26:27.784Z,1.00
2019-03-20T00:31:32.671Z,1.00
2019-03-20T00:36:37.648Z,0.80
2019-03-20T00:41:42.511Z,0.70
2019-03-20T00:46:47.753Z,0.60
2019-03-20T00:51:55.339Z,0.60
2019-03-20T00:57:00.631Z,0.60
2019-03-20T01:02:05.970Z,0.50
2019-03-20T01:07:11.000Z,0.50
2019-03-20T01:12:17.723Z,0.50
2019-03-20T01:17:22.658Z,0.40
2019-03-20T01:22:28.551Z,0.40
2019-03-20T01:27:33.523Z,0.30
2019-03-20T01:32:38.737Z,0.40
2019-03-20T01:37:43.792Z,0.40
2019-03-20T01:42:48.778Z,0.30
2019-03-20T01:47:54.293Z,0.20
2019-03-20T01:52:59.526Z,0.20
2019-03-20T01:58:04.703Z,0.10
2019-03-20T02:03:09.889Z,0.00
2019-03-20T02:08:16.351Z,0.00
2019-03-20T02:13:22.004Z,0.00
2019-03-20T02:18:28.367Z,-0.20
2019-03-20T02:23:34.683Z,-0.20
2019-03-20T02:28:40.753Z,-0.20
2019-03-20T02:33:47.605Z,-0.30
2019-03-20T02:38:53.583Z,-0.30
2019-03-20T02:43:59.878Z,-0.40
2019-03-20T02:49:05.445Z,-0.40
2019-03-20T02:54:11.773Z,-0.50
2019-03-20T02:59:18.056Z,-0.50
2019-03-20T03:04:23.978Z,-0.50
2019-03-20T03:09:29.369Z,-0.60
2019-03-20T03:14:34.448Z,-0.60
2019-03-20T03:19:39.639Z,-0.70
2019-03-20T03:24:44.732Z,-0.70
2019-03-20T03:29:49.814Z,-0.70
2019-03-20T03:34:56.570Z,-0.80
2019-03-20T03:40:01.746Z,-0.90
2019-03-20T03:45:09.908Z,-0.90
2019-03-20T03:50:15.101Z,-0.90
2019-03-20T03:55:20.251Z,-1.10
2019-03-20T04:00:25.240Z,-1.10
2019-03-20T04:05:30.412Z,-1.10
2019-03-20T04:10:35.686Z,-1.20
2019-03-20T04:15:40.754Z,-1.30
2019-03-20T04:20:45.799Z,-1.30
2019-03-20T04:25:50.889Z,-1.30
2019-03-20T04:30:55.957Z,-1.30
2019-03-20T04:36:01.440Z,-1.40
2019-03-20T04:41:06.685Z,-1.40
2019-03-20T04:46:11.813Z,-1.40
2019-03-20T04:51:17.322Z,-1.50
2019-03-20T04:56:22.509Z,-1.50
2019-03-20T05:01:27.595Z,-1.50
2019-03-20T05:06:32.556Z,-1.50
2019-03-20T05:11:37.612Z,-1.50
2019-03-20T05:16:42.690Z,-1.40
2019-03-20T05:21:47.553Z,-1.30
2019-03-20T05:26:52.455Z,-1.30
2019-03-20T05:31:57.526Z,-1.20
2019-03-20T05:37:10.435Z,-1.20
2019-03-20T05:42:09.669Z,-1.20
2019-03-20T05:47:14.573Z,-1.20
2019-03-20T05:52:19.643Z,-1.10
2019-03-20T05:57:24.739Z,-0.90
2019-03-20T06:02:29.633Z,-0.80
2019-03-20T06:07:34.596Z,-0.70
2019-03-20T06:12:39.788Z,-0.50
2019-03-20T06:17:46.733Z,-0.30
2019-03-20T06:22:51.272Z,0.00
2019-03-20T06:27:56.127Z,0.20
2019-03-20T06:33:01.201Z,0.50
2019-03-20T06:38:06.497Z,0.80
2019-03-20T06:43:11.636Z,1.00
2019-03-20T06:48:16.600Z,1.30
2019-03-20T06:53:21.692Z,1.60
2019-03-20T06:58:26.770Z,1.80
2019-03-20T07:03:40.560Z,2.00
2019-03-20T07:09:12.436Z,2.30
2019-03-20T07:14:17.660Z,2.50
2019-03-20T07:19:22.694Z,2.70
2019-03-20T07:24:27.651Z,2.90
2019-03-20T07:29:32.818Z,3.20
2019-03-20T07:34:37.764Z,3.50
2019-03-20T07:39:43.123Z,3.80
2019-03-20T07:44:48.284Z,4.00
2019-03-20T07:49:55.316Z,4.40
2019-03-20T07:55:00.441Z,4.80
2019-03-20T08:00:08.842Z,5.10
2019-03-20T08:05:14.037Z,5.50
2019-03-20T08:10:20.116Z,5.80
2019-03-20T08:15:25.162Z,6.10
2019-03-20T08:20:30.722Z,6.30
2019-03-20T08:25:35.785Z,6.60
2019-03-20T08:30:40.737Z,6.90
2019-03-20T08:35:45.764Z,7.00
2019-03-20T08:40:50.878Z,7.00
2019-03-20T08:45:55.821Z,7.30
2019-03-20T08:51:00.791Z,7.50
2019-03-20T08:56:05.871Z,7.40
2019-03-20T09:01:10.737Z,7.60
2019-03-20T09:06:15.739Z,7.90
2019-03-20T09:11:20.625Z,8.20
2019-03-20T09:16:25.784Z,8.10
2019-03-20T09:21:30.587Z,8.40
2019-03-20T09:26:35.541Z,8.70
2019-03-20T09:31:40.441Z,8.70
2019-03-20T09:36:45.418Z,9.10
2019-03-20T09:41:50.524Z,9.10
2019-03-20T09:46:55.539Z,9.20
2019-03-20T09:52:00.803Z,9.40
2019-03-20T09:57:05.964Z,9.50
2019-03-20T10:02:11.006Z,9.70
2019-03-20T10:07:15.989Z,9.60
2019-03-20T10:12:21.040Z,9.80
2019-03-20T10:17:25.912Z,9.70
2019-03-20T10:22:30.885Z,9.80
2019-03-20T10:27:35.951Z,10.20
2019-03-20T10:32:40.821Z,10.30
2019-03-20T10:37:45.881Z,10.50
2019-03-20T10:42:50.943Z,10.30
2019-03-20T10:47:55.865Z,10.50
2019-03-20T10:53:00.912Z,10.70
2019-03-20T10:58:06.348Z,10.70
2019-03-20T11:03:11.208Z,10.90
2019-03-20T11:08:16.092Z,10.90
2019-03-20T11:13:21.072Z,11.00
2019-03-20T11:18:25.956Z,11.20
2019-03-20T11:23:30.712Z,11.30
2019-03-20T11:28:35.860Z,11.40
2019-03-20T11:33:40.854Z,11.50
2019-03-20T11:38:46.020Z,11.50
2019-03-20T11:43:51.224Z,11.30
2019-03-20T11:48:56.336Z,11.70
2019-03-20T11:54:01.576Z,11.90
2019-03-20T11:59:06.538Z,11.40
2019-03-20T12:04:11.591Z,11.70
2019-03-20T12:09:16.596Z,11.90
2019-03-20T12:14:21.658Z,11.70
2019-03-20T12:19:26.691Z,11.90
2019-03-20T12:24:31.750Z,11.90
2019-03-20T12:29:36.707Z,12.00
2019-03-20T12:34:42.727Z,12.10
2019-03-20T12:39:53.178Z,11.90
2019-03-20T12:44:55.711Z,11.90
2019-03-20T12:50:02.038Z,12.00
2019-03-20T12:55:12.763Z,12.00
2019-03-20T13:00:28.455Z,12.00
2019-03-20T13:05:33.526Z,11.80
2019-03-20T13:10:39.861Z,12.00
2019-03-20T13:15:46.194Z,12.10
2019-03-20T13:20:52.524Z,12.00
2019-03-20T13:26:00.767Z,12.00
2019-03-20T13:31:12.452Z,12.00
2019-03-20T13:36:18.075Z,11.80
2019-03-20T13:41:24.412Z,11.50
2019-03-20T13:46:31.573Z,11.80
2019-03-20T13:51:36.810Z,12.00
2019-03-20T13:56:42.775Z,11.80
2019-03-20T14:01:48.440Z,11.80
2019-03-20T14:06:54.718Z,11.80
2019-03-20T14:12:01.058Z,11.60
2019-03-20T14:17:07.400Z,11.40
2019-03-20T14:22:13.915Z,11.30
2019-03-20T14:27:20.250Z,11.20
2019-03-20T14:32:26.590Z,11.30
2019-03-20T14:37:34.407Z,11.30
2019-03-20T14:42:39.685Z,11.50
2019-03-20T14:47:46.570Z,11.40
2019-03-20T14:52:52.015Z,11.20
2019-03-20T14:57:58.288Z,11.10
2019-03-20T15:03:04.647Z,11.00
2019-03-20T15:08:10.426Z,11.00
2019-03-20T15:13:16.641Z,10.90
2019-03-20T15:18:22.914Z,10.90
2019-03-20T15:23:29.144Z,10.90
2019-03-20T15:28:35.136Z,10.90
2019-03-20T15:33:40.412Z,10.80
2019-03-20T15:38:46.727Z,10.80
2019-03-20T15:44:01.942Z,10.80
2019-03-20T15:49:02.107Z,10.80
2019-03-20T15:54:07.140Z,10.70
2019-03-20T15:59:12.286Z,10.60
2019-03-20T16:04:17.334Z,10.60
2019-03-20T16:09:22.545Z,10.60
2019-03-20T16:14:27.563Z,10.50
2019-03-20T16:19:32.695Z,10.50
2019-03-20T16:24:37.854Z,10.30
2019-03-20T16:29:42.889Z,10.30
2019-03-20T16:34:47.645Z,10.20
2019-03-20T16:39:52.672Z,10.10
2019-03-20T16:44:57.808Z,10.00
2019-03-20T16:50:03.245Z,10.00
2019-03-20T16:55:10.768Z,9.90
2019-03-20T17:00:32.595Z,9.80
2019-03-20T17:05:37.931Z,9.70
2019-03-20T17:10:47.137Z,9.70
2019-03-20T17:15:52.183Z,9.70
2019-03-20T17:20:58.012Z,9.60
2019-03-20T17:26:03.178Z,9.60
2019-03-20T17:31:08.221Z,9.50
2019-03-20T17:36:13.437Z,9.50
2019-03-20T17:41:18.363Z,9.50
2019-03-20T17:46:23.277Z,9.50
2019-03-20T17:51:28.507Z,9.40
2019-03-20T17:56:33.751Z,9.40
2019-03-20T18:01:38.941Z,9.40
2019-03-20T18:06:43.988Z,9.40
2019-03-20T18:11:49.430Z,9.40
2019-03-20T18:16:55.527Z,9.40
2019-03-20T18:22:00.709Z,9.40
2019-03-20T18:27:05.863Z,9.40
2019-03-20T18:32:11.088Z,9.30
2019-03-20T18:37:16.130Z,9.30
2019-03-20T18:42:21.261Z,9.30
2019-03-20T18:47:26.547Z,9.30
2019-03-20T18:52:31.673Z,9.30
2019-03-20T18:57:36.919Z,9.30
2019-03-20T19:02:42.463Z,9.30
2019-03-20T19:07:47.515Z,9.30
2019-03-20T19:12:52.570Z,9.30
2019-03-20T19:17:58.649Z,9.30
2019-03-20T19:23:03.680Z,9.30
2019-03-20T19:28:08.615Z,9.30
2019-03-20T19:33:13.840Z,9.30
2019-03-20T19:38:20.473Z,9.30
2019-03-20T19:43:26.787Z,9.40
2019-03-20T19:48:31.909Z,9.30
2019-03-20T19:53:37.158Z,9.40
2019-03-20T19:58:42.202Z,9.40
2019-03-20T20:03:47.463Z,9.30
2019-03-20T20:08:52.499Z,9.40
2019-03-20T20:13:58.644Z,9.30
2019-03-20T20:19:03.708Z,9.30
2019-03-20T20:24:08.927Z,9.30
2019-03-20T20:29:13.995Z,9.30
2019-03-20T20:34:19.137Z,9.30
2019-03-20T20:39:24.272Z,9.30
2019-03-20T20:44:29.911Z,9.30
2019-03-20T20:49:35.064Z,9.30
2019-03-20T20:54:40.215Z,9.30
2019-03-20T20:59:45.245Z,9.30
2019-03-20T21:04:50.473Z,9.30
2019-03-20T21:09:55.453Z,9.40
2019-03-20T21:15:00.639Z,9.40
2019-03-20T21:20:06.878Z,9.40
2019-03-20T21:25:16.059Z,9.40
2019-03-20T21:30:48.038Z,9.40
2019-03-20T21:36:24.459Z,9.40
2019-03-20T21:41:32.442Z,9.40
2019-03-20T21:46:59.823Z,9.40
2019-03-20T21:52:04.648Z,9.40
2019-03-20T21:57:27.646Z,9.40
2019-03-20T22:02:45.354Z,9.40
2019-03-20T22:07:50.230Z,9.50
2019-03-20T22:13:18.928Z,9.50
2019-03-20T22:18:48.579Z,9.40
2019-03-20T22:24:20.205Z,9.50
2019-03-20T22:29:25.953Z,9.50
2019-03-20T22:34:59.340Z,9.40
2019-03-20T22:40:18.861Z,9.40
2019-03-20T22:45:43.276Z,9.50
2019-03-20T22:51:16.365Z,9.50
2019-03-20T22:56:24.652Z,9.50
2019-03-20T23:01:35.637Z,9.40
2019-03-20T23:06:40.679Z,9.30
2019-03-20T23:11:45.729Z,9.30
2019-03-20T23:16:50.924Z,9.30
2019-03-20T23:21:55.945Z,9.30
2019-03-20T23:27:04.062Z,9.20
2019-03-20T23:32:09.250Z,9.20
2019-03-20T23:37:14.849Z,9.20
2019-03-20T23:42:20.094Z,9.20
2019-03-20T23:47:28.094Z,9.20
2019-03-20T23:52:33.244Z,9.20
2019-03-20T23:57:38.503Z,9.20
